createdAt,value
2023-04-21T00:00:15.322Z,97.78
2023-04-21T00:01:15.244Z,98.60
2023-04-21T00:02:15.257Z,98.39
2023-04-21T00:03:15.350Z,98.29
2023-04-21T00:04:15.504Z,97.27
2023-04-21T00:05:15.393Z,97.88
2023-04-21T00:06:15.212Z,97.67
2023-04-21T00:07:15.213Z,97.88
2023-04-21T00:08:15.188Z,97.57
2023-04-21T00:09:15.184Z,97.78
2023-04-21T00:10:15.217Z,97.67
2023-04-21T00:11:15.158Z,97.78
2023-04-21T00:12:15.137Z,97.78
2023-04-21T00:13:15.142Z,97.88
2023-04-21T00:14:15.119Z,97.78
2023-04-21T00:15:15.179Z,98.08
2023-04-21T00:16:15.144Z,97.78
2023-04-21T00:17:15.096Z,98.70
2023-04-21T00:18:15.067Z,98.50
2023-04-21T00:19:15.058Z,97.88
2023-04-21T00:20:15.220Z,98.29
2023-04-21T00:21:15.079Z,97.99
2023-04-21T00:22:15.030Z,98.60
2023-04-21T00:23:15.029Z,98.50
2023-04-21T00:24:15.010Z,98.08
2023-04-21T00:25:14.994Z,98.29
2023-04-21T00:26:15.157Z,97.99
2023-04-21T00:27:15.038Z,98.29
2023-04-21T00:28:14.973Z,98.29
2023-04-21T00:29:14.945Z,98.08
2023-04-21T00:30:14.955Z,98.60
2023-04-21T00:31:15.021Z,98.39
2023-04-21T00:32:15.005Z,98.29
2023-04-21T00:33:14.906Z,98.85
2023-04-21T00:34:14.918Z,98.50
2023-04-21T00:35:14.886Z,99.01
2023-04-21T00:36:14.872Z,99.05
2023-04-21T00:37:14.917Z,99.01
2023-04-21T00:38:14.852Z,98.96
2023-04-21T00:39:14.865Z,98.75
2023-04-21T00:40:14.881Z,99.05
2023-04-21T00:41:14.827Z,98.91
2023-04-21T00:42:14.878Z,98.80
2023-04-21T00:43:14.799Z,98.54
2023-04-21T00:44:14.803Z,98.91
2023-04-21T00:45:14.796Z,98.96
2023-04-21T00:46:14.821Z,98.85
2023-04-21T00:47:14.825Z,98.70
2023-04-21T00:48:14.769Z,98.75
2023-04-21T00:49:14.750Z,98.33
2023-04-21T00:50:14.762Z,98.75
2023-04-21T00:51:14.713Z,98.75
2023-04-21T00:52:14.810Z,98.96
2023-04-21T00:53:14.691Z,98.85
2023-04-21T00:54:14.683Z,98.75
2023-04-21T00:55:14.684Z,98.75
2023-04-21T00:56:14.678Z,99.16
2023-04-21T00:57:14.724Z,98.85
2023-04-21T00:58:14.657Z,98.96
2023-04-21T00:59:14.660Z,99.16
2023-04-21T01:00:14.645Z,99.05
2023-04-21T01:01:14.725Z,99.05
2023-04-21T01:02:14.717Z,99.05
2023-04-21T01:03:14.709Z,99.05
2023-04-21T01:04:14.635Z,98.85
2023-04-21T01:05:14.590Z,98.96
2023-04-21T01:06:14.601Z,98.96
2023-04-21T01:07:14.544Z,99.05
2023-04-21T01:08:14.597Z,98.65
2023-04-21T01:09:14.532Z,99.16
2023-04-21T01:10:14.521Z,98.54
2023-04-21T01:11:14.513Z,98.96
2023-04-21T01:12:14.505Z,98.85
2023-04-21T01:13:14.567Z,98.96
2023-04-21T01:14:14.502Z,98.80
2023-04-21T01:15:14.484Z,98.96
2023-04-21T01:16:14.509Z,98.85
2023-04-21T01:17:14.462Z,98.75
2023-04-21T01:18:14.541Z,98.54
2023-04-21T01:19:14.436Z,98.75
2023-04-21T01:20:14.420Z,98.80
2023-04-21T01:21:14.409Z,99.05
2023-04-21T01:22:14.390Z,98.75
2023-04-21T01:23:14.430Z,98.96
2023-04-21T01:24:14.384Z,98.33
2023-04-21T01:25:14.398Z,98.80
2023-04-21T01:26:14.371Z,99.11
2023-04-21T01:27:14.349Z,98.39
2023-04-21T01:28:14.417Z,98.39
2023-04-21T01:29:14.325Z,99.05
2023-04-21T01:30:14.313Z,98.80
2023-04-21T01:31:14.318Z,98.75
2023-04-21T01:32:14.346Z,99.01
2023-04-21T01:33:14.323Z,98.80
2023-04-21T01:34:14.350Z,98.91
2023-04-21T01:35:14.250Z,98.80
2023-04-21T01:36:14.259Z,98.80
2023-04-21T01:37:14.265Z,99.05
2023-04-21T01:38:14.323Z,98.85
2023-04-21T01:39:14.269Z,98.29
2023-04-21T01:40:14.208Z,98.24
2023-04-21T01:41:14.207Z,98.19
2023-04-21T01:42:14.190Z,98.33
2023-04-21T01:43:14.186Z,98.65
2023-04-21T01:44:14.231Z,98.65
2023-04-21T01:45:14.190Z,98.19
2023-04-21T01:46:14.193Z,98.50
2023-04-21T01:47:14.153Z,98.39
2023-04-21T01:48:14.247Z,98.50
2023-04-21T01:49:14.207Z,98.50
2023-04-21T01:50:14.114Z,98.91
2023-04-21T01:51:14.092Z,97.99
2023-04-21T01:52:14.085Z,98.29
2023-04-21T01:53:14.084Z,98.39
2023-04-21T01:54:14.120Z,98.08
2023-04-21T01:55:14.091Z,98.60
2023-04-21T01:56:14.049Z,98.91
2023-04-21T01:57:14.114Z,98.39
2023-04-21T01:58:14.022Z,98.54
2023-04-21T01:59:14.082Z,98.08
2023-04-21T02:00:14.028Z,98.39
2023-04-21T02:01:14.167Z,98.70
2023-04-21T02:02:14.142Z,98.08
2023-04-21T02:03:14.113Z,98.44
2023-04-21T02:04:14.181Z,97.67
2023-04-21T02:05:13.980Z,98.08
2023-04-21T02:06:13.937Z,98.08
2023-04-21T02:07:13.975Z,97.88
2023-04-21T02:08:14.010Z,98.39
2023-04-21T02:09:13.978Z,98.33
2023-04-21T02:10:13.951Z,98.54
2023-04-21T02:11:13.885Z,98.75
2023-04-21T02:12:13.895Z,98.85
2023-04-21T02:13:13.862Z,98.85
2023-04-21T02:14:13.954Z,98.33
2023-04-21T02:15:13.842Z,97.88
2023-04-21T02:16:14.524Z,98.54
2023-04-21T02:17:13.827Z,98.44
2023-04-21T02:18:13.886Z,98.75
2023-04-21T02:19:13.868Z,98.75
2023-04-21T02:20:13.804Z,98.54
2023-04-21T02:21:13.768Z,98.03
2023-04-21T02:22:13.785Z,98.65
2023-04-21T02:23:13.759Z,98.54
2023-04-21T02:24:13.831Z,98.65
2023-04-21T02:25:13.809Z,98.13
2023-04-21T02:26:13.741Z,98.13
2023-04-21T02:27:13.715Z,98.13
2023-04-21T02:28:13.693Z,98.85
2023-04-21T02:29:13.771Z,98.75
2023-04-21T02:30:13.753Z,98.96
2023-04-21T02:31:13.696Z,97.92
2023-04-21T02:32:24.858Z,98.54
2023-04-21T02:33:14.698Z,98.75
2023-04-21T02:34:13.714Z,98.54
2023-04-21T02:35:13.635Z,98.54
2023-04-21T02:36:13.615Z,98.65
2023-04-21T02:37:13.606Z,98.85
2023-04-21T02:38:13.608Z,98.54
2023-04-21T02:39:13.590Z,98.75
2023-04-21T02:40:13.645Z,98.85
2023-04-21T02:41:13.621Z,98.44
2023-04-21T02:42:13.590Z,98.65
2023-04-21T02:43:13.538Z,98.13
2023-04-21T02:44:13.552Z,98.54
2023-04-21T02:45:13.535Z,97.72
2023-04-21T02:46:13.581Z,98.24
2023-04-21T02:47:13.531Z,98.24
2023-04-21T02:48:13.485Z,98.44
2023-04-21T02:49:13.496Z,98.24
2023-04-21T02:50:13.574Z,98.33
2023-04-21T02:51:13.487Z,98.13
2023-04-21T02:52:13.448Z,98.44
2023-04-21T02:53:13.432Z,98.44
2023-04-21T02:54:13.421Z,98.69
2023-04-21T02:55:13.486Z,98.18
2023-04-21T02:56:13.416Z,98.28
2023-04-21T02:57:13.456Z,98.28
2023-04-21T02:58:13.422Z,97.97
2023-04-21T02:59:13.364Z,98.28
2023-04-21T03:00:13.416Z,98.24
2023-04-21T03:01:13.397Z,98.44
2023-04-21T03:02:13.443Z,98.90
2023-04-21T03:03:13.454Z,98.59
2023-04-21T03:04:13.474Z,98.49
2023-04-21T03:05:13.306Z,98.49
2023-04-21T03:06:13.390Z,98.79
2023-04-21T03:07:13.374Z,98.79
2023-04-21T03:08:13.279Z,98.90
2023-04-21T03:09:13.283Z,98.69
2023-04-21T03:10:13.298Z,99.10
2023-04-21T03:11:13.303Z,98.90
2023-04-21T03:12:13.241Z,98.69
2023-04-21T03:13:13.232Z,98.79
2023-04-21T03:14:13.209Z,98.69
2023-04-21T03:15:13.216Z,98.49
2023-04-21T03:16:13.290Z,98.79
2023-04-21T03:17:13.203Z,98.69
2023-04-21T03:18:13.329Z,98.49
2023-04-21T03:19:13.162Z,98.59
2023-04-21T03:20:13.167Z,98.18
2023-04-21T03:21:13.152Z,99.00
2023-04-21T03:22:13.145Z,98.90
2023-04-21T03:23:13.193Z,98.59
2023-04-21T03:24:13.220Z,98.28
2023-04-21T03:25:13.147Z,99.62
2023-04-21T03:26:13.153Z,98.69
2023-04-21T03:27:13.098Z,98.49
2023-04-21T03:28:13.083Z,99.00
2023-04-21T03:29:13.124Z,98.38
2023-04-21T03:30:13.096Z,98.38
2023-04-21T03:31:13.047Z,98.69
2023-04-21T03:32:13.211Z,98.38
2023-04-21T03:33:13.056Z,98.49
2023-04-21T03:34:13.089Z,98.38
2023-04-21T03:35:13.075Z,99.00
2023-04-21T03:36:13.013Z,99.00
2023-04-21T03:37:13.000Z,98.69
2023-04-21T03:38:13.005Z,98.69
2023-04-21T03:39:20.165Z,99.10
2023-04-21T03:40:13.956Z,98.49
2023-04-21T03:41:12.947Z,99.10
2023-04-21T03:42:12.956Z,99.31
2023-04-21T03:43:12.912Z,99.62
2023-04-21T03:44:12.952Z,98.59
2023-04-21T03:45:12.884Z,99.10
2023-04-21T03:46:12.982Z,98.49
2023-04-21T03:47:12.887Z,99.21
2023-04-21T03:48:12.926Z,98.69
2023-04-21T03:49:12.857Z,98.79
2023-04-21T03:50:12.898Z,98.69
2023-04-21T03:51:12.867Z,98.90
2023-04-21T03:52:12.829Z,98.79
2023-04-21T03:53:12.816Z,99.41
2023-04-21T03:54:12.830Z,99.10
2023-04-21T03:55:12.942Z,98.69
2023-04-21T03:56:12.793Z,98.79
2023-04-21T03:57:12.762Z,98.90
2023-04-21T03:58:12.751Z,98.59
2023-04-21T03:59:12.763Z,98.69
2023-04-21T04:00:12.812Z,98.69
2023-04-21T04:01:12.722Z,98.38
2023-04-21T04:02:12.816Z,98.69
2023-04-21T04:03:12.829Z,98.38
2023-04-21T04:04:13.005Z,98.79
2023-04-21T04:05:12.848Z,99.05
2023-04-21T04:06:12.766Z,98.94
2023-04-21T04:07:12.676Z,98.94
2023-04-21T04:08:12.674Z,99.15
2023-04-21T04:09:12.645Z,98.84
2023-04-21T04:10:12.643Z,98.74
2023-04-21T04:11:12.650Z,98.63
2023-04-21T04:12:12.613Z,99.05
2023-04-21T04:13:12.600Z,99.15
2023-04-21T04:14:12.584Z,98.94
2023-04-21T04:15:12.634Z,98.94
2023-04-21T04:16:12.731Z,99.15
2023-04-21T04:17:12.559Z,99.05
2023-04-21T04:18:12.569Z,98.94
2023-04-21T04:19:12.563Z,99.25
2023-04-21T04:20:12.584Z,99.35
2023-04-21T04:21:12.593Z,99.25
2023-04-21T04:22:12.535Z,99.05
2023-04-21T04:23:12.494Z,99.15
2023-04-21T04:24:12.487Z,99.46
2023-04-21T04:25:12.496Z,99.56
2023-04-21T04:26:12.507Z,99.66
2023-04-21T04:27:12.516Z,99.77
2023-04-21T04:28:12.454Z,99.56
2023-04-21T04:29:12.478Z,99.15
2023-04-21T04:30:12.445Z,99.15
2023-04-21T04:31:12.536Z,99.15
2023-04-21T04:32:12.485Z,99.46
2023-04-21T04:33:12.384Z,99.66
2023-04-21T04:34:12.386Z,99.56
2023-04-21T04:35:12.391Z,99.35
2023-04-21T04:36:12.348Z,99.15
2023-04-21T04:37:12.420Z,98.94
2023-04-21T04:38:12.320Z,99.05
2023-04-21T04:39:12.328Z,99.15
2023-04-21T04:40:12.342Z,98.84
2023-04-21T04:41:12.306Z,99.15
2023-04-21T04:42:12.344Z,98.90
2023-04-21T04:43:12.286Z,99.15
2023-04-21T04:44:12.274Z,99.56
2023-04-21T04:45:12.275Z,99.05
2023-04-21T04:46:12.273Z,99.15
2023-04-21T04:47:12.288Z,99.00
2023-04-21T04:48:12.234Z,98.79
2023-04-21T04:49:12.217Z,99.10
2023-04-21T04:50:12.205Z,98.90
2023-04-21T04:51:12.195Z,99.21
2023-04-21T04:52:12.252Z,98.59
2023-04-21T04:53:12.163Z,98.79
2023-04-21T04:54:12.171Z,98.79
2023-04-21T04:55:14.956Z,98.49
2023-04-21T04:56:12.132Z,99.62
2023-04-21T04:57:12.184Z,98.69
2023-04-21T04:58:12.206Z,99.21
2023-04-21T04:59:12.143Z,98.85
2023-04-21T05:00:12.103Z,98.90
2023-04-21T05:01:12.095Z,98.90
2023-04-21T05:02:12.243Z,99.10
2023-04-21T05:03:12.255Z,98.90
2023-04-21T05:04:12.260Z,98.38
2023-04-21T05:05:12.188Z,98.07
2023-04-21T05:06:12.036Z,98.65
2023-04-21T05:07:12.027Z,98.07
2023-04-21T05:08:12.081Z,98.54
2023-04-21T05:09:11.994Z,98.44
2023-04-21T05:10:11.994Z,98.03
2023-04-21T05:11:12.005Z,98.24
2023-04-21T05:12:12.000Z,98.96
2023-04-21T05:13:12.021Z,98.24
2023-04-21T05:14:11.963Z,98.03
2023-04-21T05:15:11.937Z,98.44
2023-04-21T05:16:12.055Z,98.03
2023-04-21T05:17:11.963Z,97.72
2023-04-21T05:18:11.926Z,98.24
2023-04-21T05:19:11.918Z,97.92
2023-04-21T05:20:11.905Z,98.03
2023-04-21T05:21:11.931Z,98.50
2023-04-21T05:22:11.900Z,98.85
2023-04-21T05:23:11.842Z,98.80
2023-04-21T05:24:11.861Z,98.70
2023-04-21T05:25:11.862Z,97.57
2023-04-21T05:26:11.890Z,97.67
2023-04-21T05:27:11.827Z,98.39
2023-04-21T05:28:11.832Z,97.47
2023-04-21T05:29:11.823Z,97.27
2023-04-21T05:30:11.787Z,97.02
2023-04-21T05:31:11.764Z,97.12
2023-04-21T05:32:11.934Z,97.02
2023-04-21T05:33:11.859Z,96.77
2023-04-21T05:34:11.771Z,96.50
2023-04-21T05:35:11.736Z,96.87
2023-04-21T05:36:11.795Z,95.94
2023-04-21T05:37:11.707Z,95.43
2023-04-21T05:38:11.698Z,95.43
2023-04-21T05:39:11.729Z,95.43
2023-04-21T05:40:11.754Z,95.39
2023-04-21T05:41:11.809Z,95.07
2023-04-21T05:42:11.655Z,95.28
2023-04-21T05:43:11.648Z,95.07
2023-04-21T05:44:11.630Z,94.56
2023-04-21T05:45:11.619Z,95.18
2023-04-21T05:46:12.052Z,95.18
2023-04-21T05:47:11.626Z,95.39
2023-04-21T05:48:13.442Z,94.98
2023-04-21T05:49:11.588Z,95.18
2023-04-21T05:50:11.578Z,95.28
2023-04-21T05:51:11.579Z,95.07
2023-04-21T05:52:11.600Z,94.77
2023-04-21T05:53:11.553Z,94.26
2023-04-21T05:54:11.530Z,94.05
2023-04-21T05:55:11.516Z,94.52
2023-04-21T05:56:11.503Z,94.83
2023-04-21T05:57:11.574Z,94.01
2023-04-21T05:58:11.478Z,94.62
2023-04-21T05:59:11.463Z,94.62
2023-04-21T06:00:11.478Z,94.42
2023-04-21T06:01:11.533Z,94.32
2023-04-21T06:02:11.665Z,93.60
2023-04-21T06:03:11.544Z,94.73
2023-04-21T06:04:11.863Z,94.27
2023-04-21T06:05:11.577Z,93.86
2023-04-21T06:06:11.449Z,93.96
2023-04-21T06:07:11.405Z,93.55
2023-04-21T06:08:11.391Z,93.66
2023-04-21T06:09:11.430Z,93.86
2023-04-21T06:10:11.355Z,93.76
2023-04-21T06:11:11.442Z,93.76
2023-04-21T06:12:11.336Z,93.15
2023-04-21T06:13:11.382Z,92.38
2023-04-21T06:14:11.332Z,93.10
2023-04-21T06:15:11.309Z,92.90
2023-04-21T06:16:11.386Z,92.38
2023-04-21T06:17:11.293Z,91.97
2023-04-21T06:18:11.364Z,91.56
2023-04-21T06:19:11.274Z,91.93
2023-04-21T06:20:11.280Z,91.63
2023-04-21T06:21:11.309Z,91.31
2023-04-21T06:22:11.234Z,91.89
2023-04-21T06:23:11.292Z,90.60
2023-04-21T06:24:11.199Z,90.66
2023-04-21T06:25:11.198Z,91.27
2023-04-21T06:26:11.262Z,91.27
2023-04-21T06:27:11.196Z,90.77
2023-04-21T06:28:11.223Z,90.97
2023-04-21T06:29:11.145Z,90.25
2023-04-21T06:30:11.153Z,89.74
2023-04-21T06:31:11.234Z,90.25
2023-04-21T06:32:11.206Z,89.74
2023-04-21T06:33:11.226Z,89.74
2023-04-21T06:34:11.129Z,90.25
2023-04-21T06:35:11.096Z,89.80
2023-04-21T06:36:11.095Z,90.11
2023-04-21T06:37:11.091Z,90.00
2023-04-21T06:38:11.154Z,90.92
2023-04-21T06:39:11.051Z,90.11
2023-04-21T06:40:11.035Z,90.21
2023-04-21T06:41:11.024Z,89.39
2023-04-21T06:42:11.062Z,89.35
2023-04-21T06:43:11.019Z,89.25
2023-04-21T06:44:11.034Z,89.35
2023-04-21T06:45:10.988Z,89.15
2023-04-21T06:46:10.983Z,88.94
2023-04-21T06:47:11.175Z,89.04
2023-04-21T06:48:11.005Z,88.74
2023-04-21T06:49:11.134Z,89.15
2023-04-21T06:50:10.984Z,88.12
2023-04-21T06:51:10.950Z,88.43
2023-04-21T06:52:10.970Z,88.33
2023-04-21T06:53:10.906Z,88.12
2023-04-21T06:54:10.896Z,88.70
2023-04-21T06:55:10.936Z,88.90
2023-04-21T06:56:10.876Z,88.59
2023-04-21T06:57:10.872Z,87.06
2023-04-21T06:58:10.896Z,87.57
2023-04-21T06:59:10.859Z,88.39
2023-04-21T07:00:10.882Z,87.88
2023-04-21T07:01:10.854Z,86.76
2023-04-21T07:02:10.853Z,87.67
2023-04-21T07:03:10.997Z,87.67
2023-04-21T07:04:10.856Z,87.06
2023-04-21T07:05:10.776Z,87.98
2023-04-21T07:06:10.861Z,87.67
2023-04-21T07:07:10.768Z,87.67
2023-04-21T07:08:10.795Z,87.63
2023-04-21T07:09:10.766Z,87.73
2023-04-21T07:10:10.726Z,86.91
2023-04-21T07:11:10.781Z,87.84
2023-04-21T07:12:10.729Z,86.82
2023-04-21T07:13:10.773Z,86.82
2023-04-21T07:14:10.683Z,87.18
2023-04-21T07:15:10.701Z,87.49
2023-04-21T07:16:10.709Z,87.49
2023-04-21T07:17:10.780Z,86.26
2023-04-21T07:18:10.728Z,85.86
2023-04-21T07:19:10.635Z,86.16
2023-04-21T07:20:10.620Z,86.16
2023-04-21T07:21:10.619Z,85.55
2023-04-21T07:22:10.632Z,86.36
2023-04-21T07:23:10.642Z,85.75
2023-04-21T07:24:10.650Z,86.88
2023-04-21T07:25:10.597Z,86.02
2023-04-21T07:26:10.562Z,85.86
2023-04-21T07:27:10.555Z,85.04
2023-04-21T07:28:10.621Z,84.90
2023-04-21T07:29:10.544Z,85.04
2023-04-21T07:30:10.611Z,85.86
2023-04-21T07:31:10.565Z,85.65
2023-04-21T07:32:10.516Z,85.45
2023-04-21T07:33:10.551Z,85.61
2023-04-21T07:34:10.561Z,84.80
2023-04-21T07:35:10.737Z,85.92
2023-04-21T07:36:10.482Z,85.92
2023-04-21T07:37:10.465Z,85.77
2023-04-21T07:38:10.530Z,86.59
2023-04-21T07:39:10.661Z,84.25
2023-04-21T07:40:10.430Z,83.94
2023-04-21T07:41:10.430Z,84.66
2023-04-21T07:42:10.401Z,83.73
2023-04-21T07:43:10.525Z,83.90
2023-04-21T07:44:10.367Z,83.80
2023-04-21T07:45:10.389Z,84.20
2023-04-21T07:46:10.358Z,84.31
2023-04-21T07:47:10.353Z,82.78
2023-04-21T07:48:10.453Z,82.78
2023-04-21T07:49:10.380Z,83.18
2023-04-21T07:50:10.324Z,83.09
2023-04-21T07:51:10.294Z,82.88
2023-04-21T07:52:10.276Z,82.94
2023-04-21T07:53:10.284Z,83.15
2023-04-21T07:54:10.341Z,83.15
2023-04-21T07:55:10.311Z,82.64
2023-04-21T07:56:10.249Z,81.72
2023-04-21T07:57:10.251Z,82.64
2023-04-21T07:58:10.224Z,82.60
2023-04-21T07:59:10.311Z,82.19
2023-04-21T08:00:10.228Z,82.19
2023-04-21T08:01:10.458Z,81.58
2023-04-21T08:02:10.259Z,80.77
2023-04-21T08:03:10.304Z,80.83
2023-04-21T08:04:10.277Z,81.48
2023-04-21T08:05:10.342Z,81.17
2023-04-21T08:06:10.544Z,81.44
2023-04-21T08:07:10.325Z,81.74
2023-04-21T08:08:10.148Z,81.13
2023-04-21T08:09:10.120Z,81.30
2023-04-21T08:10:10.185Z,79.77
2023-04-21T08:11:11.032Z,79.47
2023-04-21T08:12:10.096Z,80.38
2023-04-21T08:13:10.076Z,79.57
2023-04-21T08:14:10.039Z,79.06
2023-04-21T08:15:10.100Z,79.27
2023-04-21T08:16:10.118Z,79.77
2023-04-21T08:17:10.017Z,80.69
2023-04-21T08:18:10.171Z,79.77
2023-04-21T08:19:10.285Z,79.57
2023-04-21T08:20:10.052Z,79.68
2023-04-21T08:21:10.073Z,79.57
2023-04-21T08:22:09.996Z,78.72
2023-04-21T08:23:09.991Z,77.33
2023-04-21T08:24:09.953Z,78.01
2023-04-21T08:25:10.048Z,77.81
2023-04-21T08:26:10.422Z,79.63
2023-04-21T08:27:09.925Z,79.74
2023-04-21T08:28:09.952Z,79.29
2023-04-21T08:29:10.030Z,79.09
2023-04-21T08:30:09.901Z,78.99
2023-04-21T08:31:09.915Z,77.36
2023-04-21T08:32:10.057Z,77.87
2023-04-21T08:33:09.987Z,77.26
2023-04-21T08:34:09.864Z,77.56
2023-04-21T08:35:09.840Z,77.56
2023-04-21T08:36:18.185Z,77.06
2023-04-21T08:37:10.861Z,76.86
2023-04-21T08:38:09.826Z,77.87
2023-04-21T08:39:09.850Z,77.16
2023-04-21T08:40:09.770Z,77.47
2023-04-21T08:41:09.765Z,77.67
2023-04-21T08:42:09.810Z,77.06
2023-04-21T08:43:09.748Z,76.75
2023-04-21T08:44:09.781Z,77.56
2023-04-21T08:45:09.745Z,76.95
2023-04-21T08:46:09.794Z,75.63
2023-04-21T08:47:09.707Z,75.98
2023-04-21T08:48:09.778Z,77.29
2023-04-21T08:49:09.750Z,77.26
2023-04-21T08:50:09.684Z,77.09
2023-04-21T08:51:09.668Z,77.91
2023-04-21T08:52:09.669Z,77.60
2023-04-21T08:53:09.712Z,77.50
2023-04-21T08:54:09.630Z,78.48
2023-04-21T08:55:09.634Z,77.16
2023-04-21T08:56:11.704Z,77.26
2023-04-21T08:57:15.217Z,77.47
2023-04-21T08:58:10.656Z,77.06
2023-04-21T08:59:09.640Z,76.51
2023-04-21T09:00:09.568Z,77.16
2023-04-21T09:01:09.618Z,77.73
2023-04-21T09:02:09.617Z,76.31
2023-04-21T09:03:19.458Z,75.90
2023-04-21T09:04:10.855Z,76.95
2023-04-21T09:05:09.812Z,76.31
2023-04-21T09:06:10.112Z,75.90
2023-04-21T09:07:09.481Z,75.90
2023-04-21T09:08:09.490Z,75.63
2023-04-21T09:09:09.518Z,75.53
2023-04-21T09:10:09.600Z,76.45
2023-04-21T09:11:09.465Z,76.55
2023-04-21T09:12:09.479Z,76.45
2023-04-21T09:13:09.448Z,76.55
2023-04-21T09:14:09.465Z,75.94
2023-04-21T09:15:09.472Z,76.45
2023-04-21T09:16:09.428Z,76.10
2023-04-21T09:17:09.571Z,76.72
2023-04-21T09:18:09.378Z,76.21
2023-04-21T09:19:09.387Z,75.76
2023-04-21T09:20:09.378Z,76.07
2023-04-21T09:21:09.494Z,76.37
2023-04-21T09:22:09.415Z,74.82
2023-04-21T09:23:09.316Z,75.46
2023-04-21T09:24:09.332Z,75.73
2023-04-21T09:25:09.308Z,74.62
2023-04-21T09:26:09.367Z,74.55
2023-04-21T09:27:09.348Z,74.31
2023-04-21T09:28:09.278Z,73.90
2023-04-21T09:29:09.273Z,74.31
2023-04-21T09:30:09.279Z,74.51
2023-04-21T09:31:09.288Z,74.41
2023-04-21T09:32:10.949Z,74.92
2023-04-21T09:33:20.031Z,74.51
2023-04-21T09:34:10.234Z,74.78
2023-04-21T09:35:09.221Z,74.38
2023-04-21T09:36:09.215Z,75.76
2023-04-21T09:37:09.312Z,74.44
2023-04-21T09:38:09.169Z,73.33
2023-04-21T09:40:09.150Z,74.74
2023-04-21T09:41:09.166Z,73.53
2023-04-21T09:42:09.188Z,72.72
2023-04-21T09:43:09.118Z,73.73
2023-04-21T09:44:09.120Z,73.39
2023-04-21T09:46:09.424Z,72.78
2023-04-21T09:47:09.158Z,73.90
2023-04-21T09:48:09.213Z,72.34
2023-04-21T09:49:09.055Z,72.24
2023-04-21T09:50:12.581Z,71.84
2023-04-21T09:52:18.322Z,71.53
2023-04-21T09:53:09.986Z,72.34
2023-04-21T09:54:15.573Z,71.09
2023-04-21T09:55:09.982Z,72.11
2023-04-21T09:56:08.967Z,71.91
2023-04-21T09:57:09.044Z,71.97
2023-04-21T09:58:08.968Z,70.56
2023-04-21T09:59:08.945Z,69.65
2023-04-21T10:00:08.933Z,70.93
2023-04-21T10:01:09.063Z,68.80
2023-04-21T10:02:09.153Z,69.31
2023-04-21T10:03:09.047Z,70.05
2023-04-21T10:04:09.119Z,69.34
2023-04-21T10:05:08.980Z,69.61
2023-04-21T10:06:08.991Z,69.74
2023-04-21T10:07:08.887Z,69.81
2023-04-21T10:08:08.911Z,69.51
2023-04-21T10:09:08.859Z,69.81
2023-04-21T10:10:08.828Z,69.44
2023-04-21T10:11:08.821Z,70.76
2023-04-21T10:12:09.777Z,69.92
2023-04-21T10:13:08.801Z,69.31
2023-04-21T10:14:08.785Z,69.51
2023-04-21T10:15:08.781Z,68.80
2023-04-21T10:16:08.844Z,69.95
2023-04-21T10:17:08.763Z,70.56
2023-04-21T10:18:08.826Z,69.44
2023-04-21T10:19:08.986Z,68.94
2023-04-21T10:20:08.757Z,70.05
2023-04-21T10:21:08.724Z,70.05
2023-04-21T10:22:08.745Z,68.63
2023-04-21T10:23:08.770Z,69.65
2023-04-21T10:24:08.703Z,69.14
2023-04-21T10:25:08.669Z,68.84
2023-04-21T10:26:08.667Z,68.87
2023-04-21T10:27:08.644Z,68.87
2023-04-21T10:28:08.712Z,69.27
2023-04-21T10:29:08.627Z,68.56
2023-04-21T10:30:08.641Z,70.25
2023-04-21T10:31:08.619Z,69.85
2023-04-21T10:32:09.571Z,70.25
2023-04-21T10:33:08.678Z,68.73
2023-04-21T10:34:08.610Z,68.84
2023-04-21T10:35:08.561Z,69.01
2023-04-21T10:36:08.541Z,68.50
2023-04-21T10:37:08.541Z,68.63
2023-04-21T10:38:08.625Z,67.62
2023-04-21T10:39:08.505Z,66.91
2023-04-21T10:40:08.509Z,67.72
2023-04-21T10:41:08.540Z,68.60
2023-04-21T10:42:08.469Z,68.30
2023-04-21T10:43:08.559Z,69.01
2023-04-21T10:44:08.451Z,67.79
2023-04-21T10:45:08.511Z,66.78
2023-04-21T10:46:08.440Z,67.59
2023-04-21T10:47:08.561Z,66.55
2023-04-21T10:48:08.587Z,67.76
2023-04-21T10:49:08.456Z,66.64
2023-04-21T10:50:08.408Z,66.11
2023-04-21T10:51:08.403Z,66.41
2023-04-21T10:52:08.429Z,64.97
2023-04-21T10:53:08.384Z,66.48
2023-04-21T10:54:08.436Z,66.75
2023-04-21T10:55:08.345Z,65.64
2023-04-21T10:56:08.353Z,64.61
2023-04-21T10:57:08.328Z,64.70
2023-04-21T10:58:08.319Z,65.61
2023-04-21T10:59:08.415Z,64.98
2023-04-21T11:00:08.300Z,64.17
2023-04-21T11:01:08.389Z,63.67
2023-04-21T11:02:08.466Z,63.29
2023-04-21T11:03:08.532Z,63.22
2023-04-21T11:04:08.426Z,62.99
2023-04-21T11:05:08.336Z,63.70
2023-04-21T11:06:08.301Z,64.00
2023-04-21T11:07:08.229Z,63.36
2023-04-21T11:08:08.215Z,63.67
2023-04-21T11:09:08.260Z,62.28
2023-04-21T11:10:08.202Z,62.59
2023-04-21T11:11:08.186Z,62.71
2023-04-21T11:12:08.268Z,63.02
2023-04-21T11:13:08.167Z,63.32
2023-04-21T11:14:08.375Z,62.62
2023-04-21T11:15:08.132Z,63.35
2023-04-21T11:16:08.140Z,65.14
2023-04-21T11:17:08.150Z,63.42
2023-04-21T11:18:08.194Z,63.02
2023-04-21T11:19:08.095Z,63.62
2023-04-21T11:20:08.130Z,63.59
2023-04-21T11:21:08.118Z,63.39
2023-04-21T11:22:08.332Z,62.88
2023-04-21T11:23:08.045Z,63.96
2023-04-21T11:24:08.034Z,63.33
2023-04-21T11:25:08.093Z,62.93
2023-04-21T11:26:08.008Z,63.03
2023-04-21T11:27:08.038Z,60.48
2023-04-21T11:28:08.057Z,61.18
2023-04-21T11:29:08.012Z,59.67
2023-04-21T11:30:08.027Z,60.28
2023-04-21T11:31:08.012Z,60.81
2023-04-21T11:32:07.960Z,60.81
2023-04-21T11:33:07.996Z,61.24
2023-04-21T11:34:07.928Z,60.51
2023-04-21T11:35:07.989Z,60.91
2023-04-21T11:36:07.918Z,60.31
2023-04-21T11:37:07.909Z,61.21
2023-04-21T11:38:07.908Z,61.08
2023-04-21T11:39:08.041Z,60.88
2023-04-21T11:40:07.856Z,61.49
2023-04-21T11:41:07.857Z,60.75
2023-04-21T11:42:07.874Z,59.44
2023-04-21T11:43:07.857Z,58.54
2023-04-21T11:44:07.919Z,60.22
2023-04-21T11:45:08.029Z,59.62
2023-04-21T11:46:07.843Z,58.51
2023-04-21T11:47:07.815Z,60.05
2023-04-21T11:48:07.907Z,59.24
2023-04-21T11:49:07.790Z,58.23
2023-04-21T11:50:07.761Z,59.24
2023-04-21T11:51:07.768Z,58.54
2023-04-21T11:52:07.777Z,58.74
2023-04-21T11:53:07.734Z,58.97
2023-04-21T11:54:07.845Z,58.47
2023-04-21T11:55:07.762Z,58.80
2023-04-21T11:56:07.697Z,58.39
2023-04-21T11:57:07.697Z,59.90
2023-04-21T11:58:07.680Z,61.01
2023-04-21T11:59:07.752Z,60.21
2023-04-21T12:00:07.689Z,61.52
2023-04-21T12:01:07.668Z,60.00
2023-04-21T12:02:07.694Z,60.91
2023-04-21T12:03:07.858Z,59.60
2023-04-21T12:04:07.782Z,60.21
2023-04-21T12:05:07.821Z,59.88
2023-04-21T12:06:07.830Z,59.67
2023-04-21T12:07:07.604Z,59.55
2023-04-21T12:08:07.648Z,60.55
2023-04-21T12:09:07.640Z,58.31
2023-04-21T12:10:07.585Z,56.90
2023-04-21T12:11:07.547Z,56.20
2023-04-21T12:12:07.593Z,56.87
2023-04-21T12:13:07.537Z,56.37
2023-04-21T12:14:07.626Z,56.87
2023-04-21T12:15:07.523Z,56.24
2023-04-21T12:16:07.531Z,57.24
2023-04-21T12:17:07.601Z,54.43
2023-04-21T12:18:07.508Z,57.52
2023-04-21T12:19:07.461Z,54.83
2023-04-21T12:20:08.046Z,53.70
2023-04-21T12:21:07.454Z,54.10
2023-04-21T12:22:07.496Z,54.43
2023-04-21T12:23:07.462Z,55.41
2023-04-21T12:24:07.400Z,55.31
2023-04-21T12:25:07.410Z,54.50
2023-04-21T12:26:07.422Z,53.70
2023-04-21T12:27:07.457Z,54.33
2023-04-21T12:28:07.374Z,56.01
2023-04-21T12:29:07.356Z,56.21
2023-04-21T12:30:07.358Z,55.81
2023-04-21T12:31:07.499Z,54.30
2023-04-21T12:32:07.474Z,53.70
2023-04-21T12:33:07.366Z,53.72
2023-04-21T12:34:07.531Z,55.63
2023-04-21T12:35:07.311Z,54.35
2023-04-21T12:36:07.288Z,54.25
2023-04-21T12:37:07.342Z,54.86
2023-04-21T12:38:07.271Z,53.85
2023-04-21T12:39:07.280Z,55.26
2023-04-21T12:40:07.236Z,54.63
2023-04-21T12:41:07.259Z,56.14
2023-04-21T12:42:07.345Z,53.83
2023-04-21T12:43:07.218Z,54.73
2023-04-21T12:44:07.208Z,53.12
2023-04-21T12:45:07.191Z,53.52
2023-04-21T12:46:07.247Z,53.42
2023-04-21T12:47:07.167Z,52.62
2023-04-21T12:48:07.340Z,52.01
2023-04-21T12:49:07.179Z,53.12
2023-04-21T12:50:07.135Z,54.03
2023-04-21T12:51:07.200Z,54.43
2023-04-21T12:52:07.185Z,54.83
2023-04-21T12:53:07.106Z,55.61
2023-04-21T12:54:07.091Z,53.50
2023-04-21T12:55:07.098Z,52.69